createdAt,value
2019-02-07T00:01:57.663Z,85.27
2019-02-07T00:04:26.495Z,78.70
2019-02-07T00:06:55.148Z,84.80
2019-02-07T00:09:26.514Z,91.00
2019-02-07T00:11:54.829Z,79.73
2019-02-07T00:14:25.419Z,88.47
2019-02-07T00:16:58.623Z,92.77
2019-02-07T00:19:26.678Z,90.03
2019-02-07T00:21:56.213Z,91.97
2019-02-07T00:24:24.882Z,85.50
2019-02-07T00:26:53.981Z,85.40
2019-02-07T00:29:21.717Z,84.73
2019-02-07T00:31:50.119Z,86.50
2019-02-07T00:34:18.185Z,97.70
2019-02-07T00:36:49.003Z,86.40
2019-02-07T00:39:18.812Z,90.00
2019-02-07T00:41:47.163Z,95.40
2019-02-07T00:44:15.853Z,102.63
2019-02-07T00:46:43.939Z,83.47
2019-02-07T00:49:12.275Z,86.83
2019-02-07T00:51:43.627Z,80.70
2019-02-07T00:54:13.207Z,92.77
2019-02-07T00:56:45.692Z,88.63
2019-02-07T00:59:14.152Z,86.40
2019-02-07T01:01:42.875Z,88.43
2019-02-07T01:04:12.976Z,89.60
2019-02-07T01:06:41.953Z,82.80
2019-02-07T01:09:12.478Z,79.63
2019-02-07T01:11:41.230Z,88.07
2019-02-07T01:14:10.660Z,94.37
2019-02-07T01:16:39.622Z,90.83
2019-02-07T01:19:10.889Z,85.73
2019-02-07T01:21:40.931Z,79.67
2019-02-07T01:24:10.420Z,82.67
2019-02-07T01:26:38.021Z,93.07
2019-02-07T01:29:06.896Z,85.90
2019-02-07T01:31:35.800Z,91.37
2019-02-07T01:34:07.079Z,92.83
2019-02-07T01:36:36.295Z,95.60
2019-02-07T01:39:10.746Z,99.77
2019-02-07T01:41:38.642Z,94.97
2019-02-07T01:44:09.611Z,88.17
2019-02-07T01:46:38.410Z,98.57
2019-02-07T01:49:07.200Z,94.93
2019-02-07T01:51:39.876Z,94.83
2019-02-07T01:54:07.981Z,89.43
2019-02-07T01:56:36.172Z,87.27
2019-02-07T01:59:04.589Z,90.07
2019-02-07T02:01:34.876Z,91.27
2019-02-07T02:04:04.005Z,92.03
2019-02-07T02:06:32.109Z,83.07
2019-02-07T02:09:08.751Z,95.03
2019-02-07T02:11:43.471Z,85.97
2019-02-07T02:14:12.352Z,94.73
2019-02-07T02:16:44.571Z,88.53
2019-02-07T02:19:18.447Z,90.80
2019-02-07T02:21:47.301Z,88.87
2019-02-07T02:24:18.837Z,99.07
2019-02-07T02:26:47.837Z,95.63
2019-02-07T02:29:20.849Z,97.13
2019-02-07T02:31:50.462Z,105.50
2019-02-07T02:34:19.027Z,99.83
2019-02-07T02:36:48.039Z,102.10
2019-02-07T02:39:16.944Z,97.97
2019-02-07T02:41:46.233Z,90.03
2019-02-07T02:44:15.378Z,99.43
2019-02-07T02:46:51.967Z,94.83
2019-02-07T02:49:20.201Z,96.83
2019-02-07T02:51:48.419Z,101.90
2019-02-07T02:54:51.528Z,99.80
2019-02-07T02:57:23.531Z,101.20
2019-02-07T02:59:53.041Z,106.23
2019-02-07T03:02:39.884Z,108.67
2019-02-07T03:05:36.973Z,104.13
2019-02-07T03:08:15.986Z,101.40
2019-02-07T03:11:12.952Z,98.57
2019-02-07T03:14:13.303Z,107.07
2019-02-07T03:17:02.307Z,95.33
2019-02-07T03:19:56.412Z,108.90
2019-02-07T03:22:43.238Z,100.30
2019-02-07T03:25:39.613Z,113.33
2019-02-07T03:28:26.163Z,114.33
2019-02-07T03:31:12.558Z,115.43
2019-02-07T03:34:20.559Z,100.90
2019-02-07T03:36:57.504Z,119.23
2019-02-07T03:39:57.223Z,109.87
2019-02-07T03:42:36.272Z,103.30
2019-02-07T03:45:25.032Z,107.33
2019-02-07T03:48:11.231Z,108.07
2019-02-07T03:51:11.653Z,103.87
2019-02-07T03:54:00.704Z,105.97
2019-02-07T03:56:51.248Z,106.70
2019-02-07T03:59:37.205Z,118.80
2019-02-07T04:02:43.595Z,97.07
2019-02-07T04:05:31.964Z,100.80
2019-02-07T04:08:26.151Z,96.17
2019-02-07T04:11:23.956Z,101.83
2019-02-07T04:14:10.328Z,108.63
2019-02-07T04:17:07.155Z,85.13
2019-02-07T04:19:58.995Z,117.20
2019-02-07T04:22:58.220Z,106.23
2019-02-07T04:25:44.551Z,114.00
2019-02-07T04:28:41.627Z,105.07
2019-02-07T04:31:38.541Z,102.00
2019-02-07T04:34:29.480Z,99.70
2019-02-07T04:37:20.440Z,115.40
2019-02-07T04:40:12.685Z,105.00
2019-02-07T04:42:59.624Z,110.77
2019-02-07T04:45:47.397Z,105.73
2019-02-07T04:48:35.176Z,107.80
2019-02-07T04:51:23.847Z,102.13
2019-02-07T04:54:10.396Z,110.63
2019-02-07T04:56:51.236Z,102.97
2019-02-07T04:59:57.510Z,100.10
2019-02-07T05:03:04.188Z,99.03
2019-02-07T05:05:52.429Z,107.40
2019-02-07T05:08:32.478Z,109.03
2019-02-07T05:11:35.643Z,105.30
2019-02-07T05:14:22.614Z,102.57
2019-02-07T05:17:16.772Z,99.53
2019-02-07T05:20:07.748Z,95.37
2019-02-07T05:22:56.594Z,91.17
2019-02-07T05:25:45.188Z,104.90
2019-02-07T05:28:34.076Z,97.40
2019-02-07T05:31:07.168Z,106.13
2019-02-07T05:33:57.472Z,103.90
2019-02-07T05:36:43.865Z,103.93
2019-02-07T05:39:29.982Z,104.93
2019-02-07T05:42:26.854Z,115.43
2019-02-07T05:45:16.411Z,102.30
2019-02-07T05:48:08.257Z,102.10
2019-02-07T05:51:08.809Z,94.73
2019-02-07T05:53:56.768Z,105.53
2019-02-07T05:56:47.525Z,106.00
2019-02-07T05:59:39.288Z,105.60
2019-02-07T06:02:29.231Z,111.07
2019-02-07T06:05:16.103Z,116.93
2019-02-07T06:08:26.164Z,115.50
2019-02-07T06:11:15.333Z,110.03
2019-02-07T06:14:01.861Z,103.57
2019-02-07T06:16:48.747Z,107.07
2019-02-07T06:19:37.083Z,103.97
2019-02-07T06:22:27.565Z,114.83
2019-02-07T06:25:24.264Z,108.73
2019-02-07T06:28:11.445Z,105.23
2019-02-07T06:31:02.437Z,95.23
2019-02-07T06:34:07.575Z,87.80
2019-02-07T06:36:56.407Z,107.53
2019-02-07T06:39:47.485Z,120.53
2019-02-07T06:42:24.709Z,112.60
2019-02-07T06:45:11.785Z,105.33
2019-02-07T06:47:59.448Z,103.03
2019-02-07T06:50:49.480Z,101.53
2019-02-07T06:53:37.004Z,111.63
2019-02-07T06:56:15.143Z,110.20
2019-02-07T06:59:03.241Z,108.63
2019-02-07T07:01:53.512Z,101.93
2019-02-07T07:04:50.302Z,83.07
2019-02-07T07:07:38.167Z,116.57
2019-02-07T07:10:34.996Z,106.53
2019-02-07T07:13:21.752Z,99.23
2019-02-07T07:16:08.754Z,101.23
2019-02-07T07:19:08.726Z,93.70
2019-02-07T07:21:55.750Z,95.27
2019-02-07T07:24:50.210Z,104.03
2019-02-07T07:27:37.781Z,99.03
2019-02-07T07:30:23.667Z,83.83
2019-02-07T07:33:26.692Z,96.87
2019-02-07T07:36:19.473Z,86.30
2019-02-07T07:39:28.247Z,97.90
2019-02-07T07:42:20.923Z,86.03
2019-02-07T07:45:18.843Z,91.53
2019-02-07T07:48:19.500Z,81.13
2019-02-07T07:51:22.319Z,84.30
2019-02-07T07:54:15.173Z,82.63
2019-02-07T07:57:54.178Z,77.77
2019-02-07T08:00:50.872Z,84.90
2019-02-07T08:03:42.019Z,74.27
2019-02-07T08:06:20.659Z,73.60
2019-02-07T08:08:58.404Z,71.00
2019-02-07T08:11:49.131Z,70.90
2019-02-07T08:14:36.005Z,76.03
2019-02-07T08:17:16.216Z,76.57
2019-02-07T08:20:09.895Z,66.03
2019-02-07T08:22:56.943Z,72.10
2019-02-07T08:25:43.405Z,85.87
2019-02-07T08:28:30.127Z,72.43
2019-02-07T08:31:13.371Z,77.20
2019-02-07T08:33:59.872Z,69.70
2019-02-07T08:36:48.665Z,75.43
2019-02-07T08:39:34.909Z,74.90
2019-02-07T08:42:21.802Z,68.80
2019-02-07T08:45:04.435Z,65.23
2019-02-07T08:47:58.393Z,63.67
2019-02-07T08:50:58.060Z,61.07
2019-02-07T08:54:03.846Z,60.60
2019-02-07T08:56:56.483Z,75.77
2019-02-07T08:59:48.071Z,68.77
2019-02-07T09:02:30.050Z,63.37
2019-02-07T09:05:18.682Z,67.83
2019-02-07T09:08:06.152Z,59.87
2019-02-07T09:10:43.165Z,64.87
2019-02-07T09:13:27.435Z,61.37
2019-02-07T09:16:16.072Z,57.00
2019-02-07T09:19:00.323Z,57.10
2019-02-07T09:22:05.652Z,66.77
2019-02-07T09:25:02.668Z,60.13
2019-02-07T09:28:02.638Z,55.30
2019-02-07T09:30:51.437Z,57.80
2019-02-07T09:33:54.896Z,58.33
2019-02-07T09:36:46.123Z,71.87
2019-02-07T09:39:31.596Z,68.70
2019-02-07T09:42:25.759Z,67.57
2019-02-07T09:45:16.589Z,69.17
2019-02-07T09:48:21.698Z,68.10
2019-02-07T09:51:07.883Z,65.17
2019-02-07T09:54:00.985Z,64.63
2019-02-07T09:56:52.150Z,63.33
2019-02-07T09:59:38.251Z,67.70
2019-02-07T10:02:34.829Z,70.83
2019-02-07T10:05:21.957Z,67.63
2019-02-07T10:08:08.238Z,80.60
2019-02-07T10:10:43.744Z,67.27
2019-02-07T10:13:30.083Z,65.53
2019-02-07T10:16:16.079Z,67.10
2019-02-07T10:18:55.598Z,71.30
2019-02-07T10:21:51.198Z,73.37
2019-02-07T10:24:50.933Z,74.50
2019-02-07T10:27:48.050Z,76.10
2019-02-07T10:30:36.941Z,76.73
2019-02-07T10:33:33.659Z,72.50
2019-02-07T10:36:21.764Z,70.77
2019-02-07T10:39:31.099Z,67.13
2019-02-07T10:42:24.103Z,74.37
2019-02-07T10:45:17.155Z,75.90
2019-02-07T10:48:07.336Z,67.33
2019-02-07T10:51:00.895Z,71.00
2019-02-07T10:53:51.360Z,67.80
2019-02-07T10:56:50.546Z,74.07
2019-02-07T10:59:30.174Z,80.93
2019-02-07T11:02:18.896Z,76.03
2019-02-07T11:05:05.299Z,72.10
2019-02-07T11:08:11.111Z,76.80
2019-02-07T11:10:54.705Z,82.60
2019-02-07T11:13:40.418Z,75.33
2019-02-07T11:16:37.046Z,80.80
2019-02-07T11:19:33.156Z,71.97
2019-02-07T11:22:24.371Z,66.67
2019-02-07T11:25:13.620Z,81.50
2019-02-07T11:28:10.799Z,91.40
2019-02-07T11:31:10.051Z,78.57
2019-02-07T11:34:12.816Z,71.83
2019-02-07T11:37:06.994Z,64.00
2019-02-07T11:40:03.172Z,67.70
2019-02-07T11:42:51.881Z,70.30
2019-02-07T11:45:38.786Z,70.07
2019-02-07T11:48:29.873Z,72.33
2019-02-07T11:51:15.640Z,78.57
2019-02-07T11:54:03.699Z,87.53
2019-02-07T11:56:52.318Z,84.87
2019-02-07T11:59:46.863Z,69.40
2019-02-07T12:02:34.025Z,78.63
2019-02-07T12:05:19.886Z,72.07
2019-02-07T12:08:19.951Z,76.77
2019-02-07T12:11:16.213Z,70.03
2019-02-07T12:14:02.003Z,77.53
2019-02-07T12:16:50.766Z,74.47
2019-02-07T12:19:34.342Z,79.13
2019-02-07T12:22:16.047Z,77.90
2019-02-07T12:25:00.380Z,75.50
2019-02-07T12:27:51.066Z,75.80
2019-02-07T12:30:37.701Z,70.80
2019-02-07T12:33:14.126Z,71.93
2019-02-07T12:35:53.382Z,68.03
2019-02-07T12:38:41.270Z,66.37
2019-02-07T12:44:30.792Z,73.30
2019-02-07T12:47:25.498Z,61.57
2019-02-07T12:50:12.767Z,67.80
2019-02-07T12:53:15.978Z,65.20
2019-02-07T12:56:08.803Z,70.33
2019-02-07T12:58:54.463Z,63.00
2019-02-07T13:01:34.981Z,62.67
2019-02-07T13:04:31.536Z,74.27
2019-02-07T13:07:23.714Z,71.20
2019-02-07T13:10:05.511Z,69.70
2019-02-07T13:12:44.625Z,68.10
2019-02-07T13:15:31.715Z,79.93
2019-02-07T13:18:24.859Z,78.43
2019-02-07T13:21:16.584Z,77.80
2019-02-07T13:24:11.981Z,80.20
2019-02-07T13:26:57.488Z,71.00
2019-02-07T13:29:40.108Z,73.13
2019-02-07T13:32:28.899Z,69.27
2019-02-07T13:35:25.647Z,77.67
2019-02-07T13:38:13.566Z,90.30
2019-02-07T13:41:07.724Z,72.17
2019-02-07T13:43:57.836Z,76.13
2019-02-07T13:46:51.716Z,74.10
2019-02-07T13:49:52.926Z,73.47
2019-02-07T13:52:34.403Z,69.43
2019-02-07T13:55:21.944Z,67.20
2019-02-07T13:58:24.758Z,70.33
2019-02-07T14:01:10.951Z,60.80
2019-02-07T14:04:01.227Z,74.67
2019-02-07T14:06:51.910Z,69.23
2019-02-07T14:09:40.818Z,71.63
2019-02-07T14:12:31.583Z,71.10
2019-02-07T14:15:24.834Z,71.03
2019-02-07T14:18:17.608Z,71.60
2019-02-07T14:21:07.860Z,71.23
2019-02-07T14:24:03.729Z,65.03
2019-02-07T14:27:00.402Z,70.90
2019-02-07T14:29:48.464Z,76.03
2019-02-07T14:32:38.759Z,75.80
2019-02-07T14:35:26.362Z,73.93
2019-02-07T14:38:14.504Z,73.33
2019-02-07T14:40:57.186Z,71.50
2019-02-07T14:43:40.987Z,78.37
2019-02-07T14:46:23.453Z,73.67
2019-02-07T14:48:52.114Z,72.63
2019-02-07T14:51:21.057Z,70.77
2019-02-07T14:53:49.376Z,69.70
2019-02-07T14:56:18.890Z,68.87
2019-02-07T14:58:50.685Z,62.97
2019-02-07T15:01:18.946Z,73.47
2019-02-07T15:03:48.573Z,69.20
2019-02-07T15:06:18.403Z,68.60
2019-02-07T15:08:45.965Z,74.03
2019-02-07T15:11:14.108Z,77.33
2019-02-07T15:13:43.586Z,74.50
2019-02-07T15:16:11.938Z,74.10
2019-02-07T15:18:41.721Z,63.77
2019-02-07T15:21:11.071Z,75.43
2019-02-07T15:23:39.169Z,69.20
2019-02-07T15:26:08.472Z,76.60
2019-02-07T15:28:39.536Z,68.43
2019-02-07T15:31:08.085Z,66.57
2019-02-07T15:33:36.994Z,71.70
2019-02-07T15:36:05.949Z,59.53
2019-02-07T15:38:34.545Z,74.73
2019-02-07T15:41:02.351Z,67.43
2019-02-07T15:43:30.022Z,64.60
2019-02-07T15:45:58.456Z,68.27
2019-02-07T15:48:26.911Z,73.20
2019-02-07T15:50:56.896Z,75.07
2019-02-07T15:53:25.739Z,75.13
2019-02-07T15:55:57.276Z,70.53
2019-02-07T15:58:37.562Z,78.80
2019-02-07T16:01:21.865Z,65.87
2019-02-07T16:04:01.639Z,75.77
2019-02-07T16:06:30.658Z,75.93
2019-02-07T16:09:00.183Z,82.60
2019-02-07T16:11:29.730Z,73.00
2019-02-07T16:13:59.631Z,70.17
2019-02-07T16:16:27.204Z,71.57
2019-02-07T16:18:55.592Z,68.50
2019-02-07T16:21:27.230Z,74.43
2019-02-07T16:23:56.756Z,69.60
2019-02-07T16:26:37.715Z,72.20
2019-02-07T16:29:09.295Z,78.17
2019-02-07T16:31:42.246Z,71.03
2019-02-07T16:34:12.495Z,75.33
2019-02-07T16:36:42.075Z,76.73
2019-02-07T16:39:12.087Z,77.13
2019-02-07T16:41:42.040Z,77.33
2019-02-07T16:44:11.132Z,82.23
2019-02-07T16:46:43.598Z,79.43
2019-02-07T16:49:13.349Z,78.67
2019-02-07T16:51:47.307Z,83.70
2019-02-07T16:54:20.061Z,88.87
2019-02-07T16:56:51.737Z,87.00
2019-02-07T16:59:23.764Z,77.87
2019-02-07T17:02:04.988Z,70.33
2019-02-07T17:04:38.483Z,80.53
2019-02-07T17:07:10.069Z,83.70
2019-02-07T17:09:44.443Z,74.17
2019-02-07T17:12:21.804Z,77.60
2019-02-07T17:14:54.375Z,83.00
2019-02-07T17:17:24.225Z,87.10
2019-02-07T17:19:56.653Z,81.63
2019-02-07T17:22:25.507Z,81.77
2019-02-07T17:24:55.105Z,82.83
2019-02-07T17:27:24.998Z,85.97
2019-02-07T17:29:58.128Z,102.67
2019-02-07T17:32:27.972Z,99.80
2019-02-07T17:34:58.352Z,97.20
2019-02-07T17:37:31.737Z,95.53
2019-02-07T17:39:59.716Z,104.60
2019-02-07T17:42:29.252Z,101.60
2019-02-07T17:45:01.086Z,100.13
2019-02-07T17:47:33.472Z,99.47
2019-02-07T17:50:10.429Z,105.90
2019-02-07T17:52:40.948Z,88.23
2019-02-07T17:55:16.078Z,93.37
2019-02-07T17:57:51.883Z,109.50
2019-02-07T18:00:50.132Z,93.13
2019-02-07T18:03:19.863Z,100.53
2019-02-07T18:05:51.778Z,98.23
2019-02-07T18:08:22.382Z,99.10
2019-02-07T18:10:52.012Z,100.87
2019-02-07T18:13:21.755Z,111.83
2019-02-07T18:15:51.157Z,115.77
2019-02-07T18:18:21.886Z,114.93
2019-02-07T18:20:53.194Z,153.70
2019-02-07T18:23:23.403Z,120.53
2019-02-07T18:25:52.715Z,115.93
2019-02-07T18:28:22.381Z,115.17
2019-02-07T18:30:54.846Z,113.23
2019-02-07T18:33:23.499Z,112.87
2019-02-07T18:35:51.693Z,119.53
2019-02-07T18:38:20.926Z,119.93
2019-02-07T18:40:49.725Z,120.83
2019-02-07T18:43:18.286Z,123.40
2019-02-07T18:45:48.524Z,130.30
2019-02-07T18:48:17.809Z,127.27
2019-02-07T18:50:50.432Z,138.57
2019-02-07T18:53:25.589Z,131.97
2019-02-07T18:55:56.841Z,129.20
2019-02-07T18:58:26.525Z,137.43
2019-02-07T19:01:04.088Z,137.87
2019-02-07T19:03:33.033Z,139.27
2019-02-07T19:06:01.968Z,150.47
2019-02-07T19:08:31.086Z,141.03
2019-02-07T19:10:58.748Z,142.97
2019-02-07T19:13:26.783Z,153.60
2019-02-07T19:15:59.517Z,146.80
2019-02-07T19:18:27.839Z,144.10
2019-02-07T19:20:58.254Z,131.17
2019-02-07T19:23:26.554Z,154.87
2019-02-07T19:25:57.621Z,167.70
2019-02-07T19:28:25.692Z,155.37
2019-02-07T19:30:53.980Z,163.43
2019-02-07T19:33:22.602Z,170.50
2019-02-07T19:35:51.369Z,171.80
2019-02-07T19:38:20.696Z,174.23
2019-02-07T19:40:48.765Z,177.43
2019-02-07T19:43:16.461Z,176.53
2019-02-07T19:45:45.483Z,192.50
2019-02-07T19:48:16.392Z,199.63
2019-02-07T19:50:44.871Z,192.90
2019-02-07T19:53:13.345Z,201.93
2019-02-07T19:55:42.258Z,178.60
2019-02-07T19:58:11.187Z,181.47
2019-02-07T20:00:39.428Z,183.20
2019-02-07T20:03:08.050Z,191.77
2019-02-07T20:05:36.306Z,210.73
2019-02-07T20:08:05.252Z,193.90
2019-02-07T20:10:37.881Z,192.57
2019-02-07T20:13:09.642Z,189.83
2019-02-07T20:15:40.770Z,189.03
2019-02-07T20:18:10.894Z,187.27
2019-02-07T20:20:40.736Z,177.10
2019-02-07T20:23:09.063Z,163.00
2019-02-07T20:25:38.775Z,171.73
2019-02-07T20:28:06.262Z,192.77
2019-02-07T20:30:39.481Z,168.23
2019-02-07T20:33:08.733Z,173.10
2019-02-07T20:35:37.699Z,174.60
2019-02-07T20:38:09.200Z,193.17
2019-02-07T20:40:37.140Z,194.97
2019-02-07T20:43:09.513Z,198.00
2019-02-07T20:45:37.135Z,184.00
2019-02-07T20:48:08.953Z,179.40
2019-02-07T20:50:36.593Z,182.37
2019-02-07T20:53:07.079Z,170.27
2019-02-07T20:55:35.295Z,166.30
2019-02-07T20:58:04.381Z,172.80
2019-02-07T21:00:36.976Z,183.67
2019-02-07T21:03:06.152Z,169.07
2019-02-07T21:05:34.495Z,158.87
2019-02-07T21:08:02.069Z,166.93
2019-02-07T21:10:34.618Z,163.13
2019-02-07T21:13:03.008Z,175.73
2019-02-07T21:15:34.807Z,166.37
2019-02-07T21:18:06.563Z,163.80
2019-02-07T21:20:36.793Z,196.03
2019-02-07T21:23:05.434Z,183.77
2019-02-07T21:25:41.035Z,173.67
2019-02-07T21:28:12.820Z,208.77
2019-02-07T21:30:40.581Z,188.90
2019-02-07T21:33:08.764Z,157.60
2019-02-07T21:35:43.144Z,165.13
2019-02-07T21:38:11.050Z,155.57
2019-02-07T21:40:40.188Z,137.73
2019-02-07T21:43:08.169Z,153.43
2019-02-07T21:45:36.631Z,168.97
2019-02-07T21:48:10.340Z,164.67
2019-02-07T21:50:37.943Z,145.73
2019-02-07T21:53:06.173Z,135.83
2019-02-07T21:55:35.625Z,146.13
2019-02-07T21:58:04.737Z,150.23
2019-02-07T22:00:38.588Z,159.53
2019-02-07T22:03:08.845Z,148.93
2019-02-07T22:05:38.483Z,127.17
2019-02-07T22:08:08.276Z,131.73
2019-02-07T22:10:36.554Z,112.37
2019-02-07T22:13:05.582Z,159.77
2019-02-07T22:15:33.211Z,123.43
2019-02-07T22:18:01.661Z,132.50
2019-02-07T22:20:31.841Z,133.00
2019-02-07T22:23:00.924Z,110.60
2019-02-07T22:25:28.806Z,114.97
2019-02-07T22:27:58.125Z,144.07
2019-02-07T22:30:29.996Z,147.60
2019-02-07T22:33:02.443Z,126.90
2019-02-07T22:35:30.854Z,110.43
2019-02-07T22:37:58.786Z,92.70
2019-02-07T22:40:30.588Z,119.27
2019-02-07T22:43:00.454Z,110.13
2019-02-07T22:45:28.689Z,118.53
2019-02-07T22:47:57.045Z,140.63
2019-02-07T22:50:27.941Z,116.30
2019-02-07T22:52:57.099Z,114.77
2019-02-07T22:55:26.608Z,94.90
2019-02-07T22:57:59.312Z,85.43
2019-02-07T23:01:11.162Z,104.77
2019-02-07T23:03:53.181Z,83.07
2019-02-07T23:06:24.583Z,112.03
2019-02-07T23:08:52.432Z,96.20
2019-02-07T23:11:23.083Z,81.53
2019-02-07T23:13:51.073Z,85.60
2019-02-07T23:16:20.673Z,112.53
2019-02-07T23:18:48.762Z,108.10
2019-02-07T23:21:16.815Z,96.50
2019-02-07T23:23:44.751Z,102.10
2019-02-07T23:26:13.009Z,98.00
2019-02-07T23:28:40.984Z,90.43
2019-02-07T23:31:10.908Z,71.07
2019-02-07T23:33:39.260Z,90.83
2019-02-07T23:36:09.447Z,68.20
2019-02-07T23:38:38.282Z,86.27
2019-02-07T23:41:07.888Z,75.57
2019-02-07T23:43:37.634Z,73.20
2019-02-07T23:46:05.786Z,63.33
2019-02-07T23:48:33.829Z,59.07
2019-02-07T23:51:22.186Z,52.63
2019-02-07T23:53:50.911Z,62.13
2019-02-07T23:56:19.707Z,51.30
2019-02-07T23:58:48.441Z,48.40
